الصفحة الرئيسية
METAR-TAF:

METAR-TAF

مطار :

مطار أنتونيو بي وان بات الدولي

Hagåtña, غوام, الولايات المتحدة

دائرة عرض: 13-29N, خط طول: 144-48E, ارتفاع: 91 متر

مراقبة الطقس الحالي

تاريخ ووقت الإصدار 36 دقيقة قبل الساعة 12:54UTC
ريح 4 عقدة من الشرق
درجة الحرارة 27°درجة مئوية
الرطوبة 94%
ضغط 1015 hPa
الرؤية: 16.1 كم
غيوم قليلة على ارتفاع 3100 قدم

METAR: PGUM 301254Z 09004KT 10SM FEW031 27/26 A2996 RMK AO2 SLP138 T02720256

زمن: 23:30 (13:30 UTC)

توقعات

تاريخ ووقت الإصدار 2ساعات و 10 دقيقة قبل الساعة 11:20UTC
التوقعات صالحة من30 الساعة 12 UTC إلى 31 الساعة 18 UTC
ريح 11 عقدة من الشرق
الرؤية: 10 كم
غيوم قليلة على ارتفاع 1800 قدم
غيوم متفرقة على ارتفاع 2500 قدم
زخات في الجوار,

TAF: PGUM 301120Z 3012/3118 08011KT P6SM VCSH FEW018 SCT025

أرصاد الطقس والتوقعات من أكثر من 4000 مطار (تقارير الطقس للمطار METAR والتنبؤ بالطقس بالمطارTAF).

المحطات المتاحة هي النقط الصفراء والحمراء على الخريطة.

حرك المؤشر فوق النقطة لمعرفة اسم المحطة.

ثم انقر لمعرفة أرصاد وتوقعات الطقس.

لتغيير الخارطة: اضغط على الأزرار الخضراء مع رمز الصليب الأسود للتكبير. على الزر الأخضر مع شرطة للتصغير، أو على الأسهم الخضراء للخرائط المجاورة.


METAR-TAF: